createdAt,value
2022-10-31T00:00:12.786Z,14.20
2022-10-31T00:01:12.683Z,14.19
2022-10-31T00:02:12.742Z,14.13
2022-10-31T00:03:12.653Z,14.12
2022-10-31T00:04:12.659Z,14.11
2022-10-31T00:05:12.654Z,14.09
2022-10-31T00:06:12.675Z,14.05
2022-10-31T00:07:12.626Z,14.04
2022-10-31T00:08:12.597Z,14.06
2022-10-31T00:09:12.707Z,14.08
2022-10-31T00:10:12.578Z,14.08
2022-10-31T00:11:12.566Z,14.08
2022-10-31T00:12:12.548Z,14.05
2022-10-31T00:13:12.610Z,14.05
2022-10-31T00:14:12.522Z,14.08
2022-10-31T00:15:12.550Z,14.06
2022-10-31T00:16:12.523Z,14.05
2022-10-31T00:17:12.507Z,14.01
2022-10-31T00:18:12.467Z,14.01
2022-10-31T00:19:12.458Z,13.99
2022-10-31T00:20:12.450Z,13.96
2022-10-31T00:21:12.425Z,13.94
2022-10-31T00:22:12.403Z,13.93
2022-10-31T00:23:12.408Z,13.96
2022-10-31T00:24:12.396Z,13.96
2022-10-31T00:25:12.363Z,13.94
2022-10-31T00:26:12.483Z,13.94
2022-10-31T00:27:13.273Z,13.93
2022-10-31T00:28:12.392Z,13.93
2022-10-31T00:29:12.338Z,13.91
2022-10-31T00:30:12.339Z,13.88
2022-10-31T00:31:12.304Z,13.88
2022-10-31T00:32:12.286Z,13.88
2022-10-31T00:33:12.269Z,13.88
2022-10-31T00:34:12.285Z,13.88
2022-10-31T00:35:12.242Z,13.87
2022-10-31T00:36:12.236Z,13.86
2022-10-31T00:37:12.204Z,13.86
2022-10-31T00:38:12.217Z,13.86
2022-10-31T00:39:12.222Z,13.87
2022-10-31T00:40:12.186Z,13.87
2022-10-31T00:41:12.196Z,13.86
2022-10-31T00:42:12.152Z,13.87
2022-10-31T00:44:12.130Z,13.84
2022-10-31T00:45:12.091Z,13.84
2022-10-31T00:46:12.090Z,13.84
2022-10-31T00:47:12.294Z,13.84
2022-10-31T00:48:12.075Z,13.84
2022-10-31T00:49:12.084Z,13.83
2022-10-31T00:50:12.040Z,13.83
2022-10-31T00:51:12.036Z,13.84
2022-10-31T00:52:12.021Z,13.86
2022-10-31T00:53:11.990Z,13.86
2022-10-31T00:54:12.000Z,13.88
2022-10-31T00:55:12.100Z,13.88
2022-10-31T00:56:11.974Z,13.90
2022-10-31T00:57:11.956Z,13.88
2022-10-31T00:58:12.046Z,13.88
2022-10-31T00:59:11.941Z,13.87
2022-10-31T01:00:11.927Z,13.86
2022-10-31T01:01:12.075Z,13.87
2022-10-31T01:02:12.002Z,13.86
2022-10-31T01:03:11.892Z,13.86
2022-10-31T01:04:11.863Z,13.87
2022-10-31T01:05:11.852Z,13.87
2022-10-31T01:06:11.831Z,13.90
2022-10-31T01:07:11.839Z,13.90
2022-10-31T01:08:11.823Z,13.90
2022-10-31T01:09:11.799Z,13.93
2022-10-31T01:10:11.778Z,13.94
2022-10-31T01:11:11.799Z,13.96
2022-10-31T01:12:11.752Z,13.99
2022-10-31T01:13:11.861Z,14.01
2022-10-31T01:14:11.749Z,14.01
2022-10-31T01:15:11.721Z,13.99
2022-10-31T01:16:11.728Z,13.99
2022-10-31T01:17:11.698Z,13.98
2022-10-31T01:18:11.691Z,13.98
2022-10-31T01:19:11.679Z,13.96
2022-10-31T01:20:11.661Z,13.91
2022-10-31T01:21:11.796Z,13.81
2022-10-31T01:22:11.641Z,13.76
2022-10-31T01:23:11.620Z,13.72
2022-10-31T01:24:11.638Z,13.69
2022-10-31T01:25:11.608Z,13.69
2022-10-31T01:26:11.605Z,13.71
2022-10-31T01:27:11.593Z,13.71
2022-10-31T01:28:11.594Z,13.69
2022-10-31T01:29:11.556Z,13.71
2022-10-31T01:30:11.515Z,13.71
2022-10-31T01:31:11.646Z,13.71
2022-10-31T01:32:11.489Z,13.69
2022-10-31T01:33:11.559Z,13.69
2022-10-31T01:34:11.488Z,13.69
2022-10-31T01:35:11.472Z,13.69
2022-10-31T01:36:11.438Z,13.68
2022-10-31T01:37:11.436Z,13.68
2022-10-31T01:38:11.407Z,13.71
2022-10-31T01:39:11.418Z,13.71
2022-10-31T01:40:11.408Z,13.71
2022-10-31T01:41:11.398Z,13.73
2022-10-31T01:42:11.376Z,13.72
2022-10-31T01:43:11.383Z,13.72
2022-10-31T01:44:11.344Z,13.73
2022-10-31T01:45:11.318Z,13.72
2022-10-31T01:46:11.323Z,13.72
2022-10-31T01:47:11.518Z,13.72
2022-10-31T01:48:12.296Z,13.69
2022-10-31T01:49:11.284Z,13.66
2022-10-31T01:50:11.318Z,13.66
2022-10-31T01:51:11.245Z,13.68
2022-10-31T01:52:11.251Z,13.68
2022-10-31T01:53:11.216Z,13.68
2022-10-31T01:54:11.215Z,13.69
2022-10-31T01:55:11.208Z,13.71
2022-10-31T01:56:11.235Z,13.69
2022-10-31T01:57:11.228Z,13.69
2022-10-31T01:58:11.228Z,13.69
2022-10-31T01:59:11.128Z,13.69
2022-10-31T02:00:11.156Z,13.66
2022-10-31T02:01:11.222Z,13.65
2022-10-31T02:02:11.273Z,13.63
2022-10-31T02:03:11.107Z,13.63
2022-10-31T02:04:11.088Z,13.63
2022-10-31T02:05:11.080Z,13.65
2022-10-31T02:06:11.085Z,13.65
2022-10-31T02:07:11.050Z,13.63
2022-10-31T02:08:11.042Z,13.63
2022-10-31T02:09:11.023Z,13.63
2022-10-31T02:10:11.009Z,13.63
2022-10-31T02:11:11.004Z,13.57
2022-10-31T02:12:11.025Z,13.57
2022-10-31T02:13:11.160Z,13.55
2022-10-31T02:14:10.966Z,13.54
2022-10-31T02:15:10.936Z,13.54
2022-10-31T02:16:10.976Z,13.54
2022-10-31T02:17:10.954Z,13.54
2022-10-31T02:18:10.929Z,13.53
2022-10-31T02:19:10.909Z,13.51
2022-10-31T02:20:10.925Z,13.48
2022-10-31T02:21:10.871Z,13.46
2022-10-31T02:22:10.872Z,13.43
2022-10-31T02:23:10.867Z,13.38
2022-10-31T02:24:10.840Z,13.32
2022-10-31T02:25:10.873Z,13.31
2022-10-31T02:26:10.813Z,13.28
2022-10-31T02:27:10.782Z,13.25
2022-10-31T02:28:10.804Z,13.25
2022-10-31T02:29:10.754Z,13.25
2022-10-31T02:30:10.774Z,13.22
2022-10-31T02:31:10.746Z,13.22
2022-10-31T02:32:10.723Z,13.21
2022-10-31T02:33:18.621Z,13.17
2022-10-31T02:34:10.692Z,13.21
2022-10-31T02:35:10.727Z,13.21
2022-10-31T02:36:10.680Z,13.17
2022-10-31T02:37:10.665Z,13.19
2022-10-31T02:38:10.646Z,13.17
2022-10-31T02:39:10.618Z,13.19
2022-10-31T02:40:10.662Z,13.17
2022-10-31T02:41:10.636Z,13.19
2022-10-31T02:42:10.592Z,13.14
2022-10-31T02:43:10.630Z,13.13
2022-10-31T02:44:10.567Z,13.12
2022-10-31T02:45:10.585Z,13.13
2022-10-31T02:46:10.542Z,13.13
2022-10-31T02:47:10.513Z,13.12
2022-10-31T02:48:10.501Z,13.13
2022-10-31T02:49:10.512Z,13.13
2022-10-31T02:50:10.482Z,13.13
2022-10-31T02:51:10.476Z,13.12
2022-10-31T02:52:10.451Z,13.10
2022-10-31T02:53:10.438Z,13.09
2022-10-31T02:54:10.431Z,13.09
2022-10-31T02:55:10.445Z,13.07
2022-10-31T02:56:10.418Z,13.06
2022-10-31T02:57:11.435Z,13.04
2022-10-31T02:58:10.417Z,13.01
2022-10-31T02:59:10.395Z,12.99
2022-10-31T03:00:10.387Z,12.99
2022-10-31T03:01:10.513Z,12.99
2022-10-31T03:02:10.480Z,12.99
2022-10-31T03:03:10.310Z,12.98
2022-10-31T03:04:10.320Z,12.96
2022-10-31T03:05:10.323Z,12.94
2022-10-31T03:06:10.292Z,12.94
2022-10-31T03:07:10.271Z,12.94
2022-10-31T03:08:10.253Z,12.92
2022-10-31T03:09:10.250Z,12.92
2022-10-31T03:10:10.229Z,12.92
2022-10-31T03:11:10.210Z,12.91
2022-10-31T03:12:10.207Z,12.91
2022-10-31T03:13:10.244Z,12.88
2022-10-31T03:14:10.185Z,12.88
2022-10-31T03:15:10.162Z,12.88
2022-10-31T03:16:10.155Z,12.88
2022-10-31T03:17:10.129Z,12.89
2022-10-31T03:18:10.143Z,12.91
2022-10-31T03:19:10.133Z,12.87
2022-10-31T03:20:10.107Z,12.88
2022-10-31T03:21:10.072Z,12.85
2022-10-31T03:22:10.059Z,12.87
2022-10-31T03:23:10.071Z,12.84
2022-10-31T03:24:10.047Z,12.88
2022-10-31T03:25:10.053Z,12.92
2022-10-31T03:26:10.022Z,12.94
2022-10-31T03:27:10.013Z,12.94
2022-10-31T03:28:10.092Z,12.95
2022-10-31T03:29:10.004Z,12.96
2022-10-31T03:30:09.981Z,12.96
2022-10-31T03:31:09.970Z,12.98
2022-10-31T03:32:09.941Z,13.01
2022-10-31T03:33:09.952Z,13.04
2022-10-31T03:34:09.923Z,13.04
2022-10-31T03:35:09.933Z,13.04
2022-10-31T03:36:09.878Z,13.04
2022-10-31T03:37:09.882Z,13.06
2022-10-31T03:38:09.881Z,13.07
2022-10-31T03:39:09.870Z,13.07
2022-10-31T03:40:09.845Z,13.09
2022-10-31T03:41:09.832Z,13.09
2022-10-31T03:42:09.806Z,13.09
2022-10-31T03:43:09.951Z,13.12
2022-10-31T03:44:09.793Z,13.10
2022-10-31T03:45:09.811Z,13.10
2022-10-31T03:46:09.788Z,13.14
2022-10-31T03:47:09.757Z,13.14
2022-10-31T03:48:09.733Z,13.17
2022-10-31T03:49:09.738Z,13.16
2022-10-31T03:50:09.743Z,13.16
2022-10-31T03:51:09.708Z,13.17
2022-10-31T03:52:09.687Z,13.21
2022-10-31T03:53:09.699Z,13.22
2022-10-31T03:54:09.666Z,13.24
2022-10-31T03:55:09.650Z,13.25
2022-10-31T03:56:09.639Z,13.25
2022-10-31T03:57:09.625Z,13.25
2022-10-31T03:58:09.738Z,13.27
2022-10-31T03:59:09.626Z,13.27
2022-10-31T04:00:09.594Z,13.27
2022-10-31T04:01:09.695Z,13.27
2022-10-31T04:02:09.650Z,13.27
2022-10-31T04:03:09.560Z,13.25
2022-10-31T04:04:09.549Z,13.25
2022-10-31T04:05:09.537Z,13.25
2022-10-31T04:06:09.530Z,13.24
2022-10-31T04:07:09.483Z,13.25
2022-10-31T04:08:09.475Z,13.22
2022-10-31T04:09:09.466Z,13.21
2022-10-31T04:10:09.477Z,13.19
2022-10-31T04:11:09.435Z,13.19
2022-10-31T04:12:09.440Z,13.19
2022-10-31T04:13:09.518Z,13.19
2022-10-31T04:14:09.422Z,13.22
2022-10-31T04:15:09.409Z,13.21
2022-10-31T04:16:12.637Z,13.19
2022-10-31T04:17:10.352Z,13.16
2022-10-31T04:18:09.356Z,13.14
2022-10-31T04:19:09.346Z,13.16
2022-10-31T04:20:09.366Z,13.14
2022-10-31T04:21:09.335Z,13.14
2022-10-31T04:22:09.306Z,13.16
2022-10-31T04:23:13.806Z,13.14
2022-10-31T04:24:10.287Z,13.13
2022-10-31T04:25:09.280Z,13.12
2022-10-31T04:26:09.284Z,13.12
2022-10-31T04:27:09.233Z,13.07
2022-10-31T04:28:09.374Z,13.06
2022-10-31T04:29:09.325Z,13.07
2022-10-31T04:30:09.214Z,13.04
2022-10-31T04:31:09.194Z,13.04
2022-10-31T04:32:09.177Z,13.04
2022-10-31T04:33:09.163Z,13.07
2022-10-31T04:34:09.163Z,13.07
2022-10-31T04:35:09.151Z,13.07
2022-10-31T04:36:09.128Z,13.06
2022-10-31T04:37:09.147Z,13.06
2022-10-31T04:38:09.101Z,13.07
2022-10-31T04:39:09.110Z,13.04
2022-10-31T04:40:09.075Z,13.04
2022-10-31T04:41:18.419Z,13.01
2022-10-31T04:42:18.820Z,13.01
2022-10-31T04:43:17.488Z,12.99
2022-10-31T04:44:09.032Z,12.99
2022-10-31T04:45:21.312Z,12.99
2022-10-31T04:46:16.889Z,13.01
2022-10-31T04:47:09.000Z,13.03
2022-10-31T04:48:08.949Z,13.04
2022-10-31T04:49:08.951Z,13.06
2022-10-31T04:50:08.944Z,13.06
2022-10-31T04:51:08.956Z,13.04
2022-10-31T04:52:08.907Z,13.04
2022-10-31T04:53:08.939Z,13.03
2022-10-31T04:54:08.879Z,13.04
2022-10-31T04:55:08.879Z,13.03
2022-10-31T04:56:08.867Z,13.01
2022-10-31T04:57:08.889Z,12.99
2022-10-31T04:58:08.863Z,13.01
2022-10-31T04:59:08.889Z,13.01
2022-10-31T05:00:08.897Z,12.99
2022-10-31T05:01:08.881Z,13.01
2022-10-31T05:02:08.947Z,13.03
2022-10-31T05:03:08.766Z,13.03
2022-10-31T05:04:08.784Z,13.06
2022-10-31T05:05:08.757Z,13.06
2022-10-31T05:06:08.758Z,13.06
2022-10-31T05:07:08.731Z,13.09
2022-10-31T05:08:08.758Z,13.07
2022-10-31T05:09:08.708Z,13.07
2022-10-31T05:10:08.693Z,13.09
2022-10-31T05:11:08.687Z,13.10
2022-10-31T05:12:08.667Z,13.12
2022-10-31T05:13:08.693Z,13.10
2022-10-31T05:14:08.617Z,13.12
2022-10-31T05:15:08.625Z,13.10
2022-10-31T05:16:08.609Z,13.09
2022-10-31T05:17:08.619Z,13.09
2022-10-31T05:18:08.582Z,13.09
2022-10-31T05:19:08.568Z,13.09
2022-10-31T05:20:08.543Z,13.09
2022-10-31T05:21:08.568Z,13.09
2022-10-31T05:22:08.548Z,13.07
2022-10-31T05:23:08.535Z,13.09
2022-10-31T05:24:08.498Z,13.04
2022-10-31T05:25:08.493Z,13.04
2022-10-31T05:26:08.493Z,13.04
2022-10-31T05:27:08.470Z,13.01
2022-10-31T05:28:08.450Z,12.99
2022-10-31T05:29:08.447Z,13.01
2022-10-31T05:30:08.439Z,12.99
2022-10-31T05:31:08.416Z,12.98
2022-10-31T05:32:08.398Z,13.01
2022-10-31T05:33:08.429Z,13.03
2022-10-31T05:34:08.377Z,13.01
2022-10-31T05:35:08.365Z,13.01
2022-10-31T05:36:08.372Z,13.03
2022-10-31T05:37:08.353Z,12.99
2022-10-31T05:38:08.347Z,12.99
2022-10-31T05:39:08.328Z,12.98
2022-10-31T05:40:08.616Z,12.96
2022-10-31T05:41:08.361Z,12.96
2022-10-31T05:42:08.286Z,12.95
2022-10-31T05:43:08.243Z,12.94
2022-10-31T05:44:08.245Z,12.92
2022-10-31T05:45:08.294Z,12.91
2022-10-31T05:46:08.250Z,12.91
2022-10-31T05:47:08.262Z,12.89
2022-10-31T05:48:08.234Z,12.89
2022-10-31T05:49:08.175Z,12.88
2022-10-31T05:50:08.172Z,12.87
2022-10-31T05:51:08.168Z,12.85
2022-10-31T05:52:08.158Z,12.84
2022-10-31T05:53:08.128Z,12.81
2022-10-31T05:54:10.843Z,12.81
2022-10-31T05:55:09.107Z,12.76
2022-10-31T05:56:08.083Z,12.79
2022-10-31T05:57:08.120Z,12.74
2022-10-31T05:58:08.063Z,12.74
2022-10-31T05:59:08.054Z,12.73
2022-10-31T06:00:10.777Z,12.73
2022-10-31T06:01:08.121Z,12.71
2022-10-31T06:02:08.008Z,12.69
2022-10-31T06:04:07.982Z,12.67
2022-10-31T06:05:08.041Z,12.67
2022-10-31T06:06:07.985Z,12.67
2022-10-31T06:07:07.948Z,12.63
2022-10-31T06:08:07.931Z,12.62
2022-10-31T06:09:07.942Z,12.63
2022-10-31T06:10:07.916Z,12.62
2022-10-31T06:11:07.926Z,12.62
2022-10-31T06:12:07.900Z,12.63
2022-10-31T06:13:07.869Z,12.63
2022-10-31T06:14:07.838Z,12.62
2022-10-31T06:15:07.857Z,12.66
2022-10-31T06:16:07.864Z,12.66
2022-10-31T06:17:07.807Z,12.66
2022-10-31T06:18:07.812Z,12.66
2022-10-31T06:19:07.791Z,12.66
2022-10-31T06:20:07.786Z,12.66
2022-10-31T06:21:07.790Z,12.66
2022-10-31T06:22:07.766Z,12.67
2022-10-31T06:23:07.738Z,12.66
2022-10-31T06:24:07.718Z,12.66
2022-10-31T06:25:07.726Z,12.66
2022-10-31T06:26:07.720Z,12.66
2022-10-31T06:27:07.729Z,12.62
2022-10-31T06:28:07.689Z,12.62
2022-10-31T06:29:07.683Z,12.63
2022-10-31T06:30:07.680Z,12.62
2022-10-31T06:31:07.695Z,12.61
2022-10-31T06:32:07.635Z,12.61
2022-10-31T06:33:07.632Z,12.59
2022-10-31T06:34:07.620Z,12.59
2022-10-31T06:35:07.592Z,12.58
2022-10-31T06:36:07.583Z,12.58
2022-10-31T06:37:07.566Z,12.58
2022-10-31T06:38:07.579Z,12.58
2022-10-31T06:39:07.537Z,12.59
2022-10-31T06:40:07.536Z,12.61
2022-10-31T06:41:07.559Z,12.63
2022-10-31T06:42:07.523Z,12.61
2022-10-31T06:43:07.499Z,12.63
2022-10-31T06:44:08.993Z,12.67
2022-10-31T06:45:07.482Z,12.67
2022-10-31T06:46:07.495Z,12.69
2022-10-31T06:47:07.468Z,12.69
2022-10-31T06:48:23.018Z,12.67
2022-10-31T06:49:08.425Z,12.69
2022-10-31T06:50:07.417Z,12.69
2022-10-31T06:51:07.407Z,12.67
2022-10-31T06:52:07.410Z,12.69
2022-10-31T06:53:07.476Z,12.67
2022-10-31T06:54:07.339Z,12.69
2022-10-31T06:55:07.366Z,12.71
2022-10-31T06:56:07.305Z,12.71
2022-10-31T06:57:07.326Z,12.73
2022-10-31T06:58:07.519Z,12.74
2022-10-31T06:59:07.305Z,12.74
2022-10-31T07:00:07.344Z,12.76
2022-10-31T07:01:07.462Z,12.77
2022-10-31T07:02:07.392Z,12.76
2022-10-31T07:03:07.259Z,12.73
2022-10-31T07:04:07.254Z,12.73
2022-10-31T07:05:07.253Z,12.73
2022-10-31T07:06:07.204Z,12.76
2022-10-31T07:07:07.200Z,12.79
2022-10-31T07:08:07.169Z,12.77
2022-10-31T07:09:07.167Z,12.76
2022-10-31T07:10:07.208Z,12.76
2022-10-31T07:11:07.134Z,12.77
2022-10-31T07:12:07.148Z,12.79
2022-10-31T07:13:07.107Z,12.79
2022-10-31T07:14:07.097Z,12.80
2022-10-31T07:15:07.131Z,12.81
2022-10-31T07:16:07.066Z,12.81
2022-10-31T07:17:07.066Z,12.84
2022-10-31T07:18:07.091Z,12.85
2022-10-31T07:19:07.043Z,12.84
2022-10-31T07:20:07.037Z,12.81
2022-10-31T07:21:07.025Z,12.85
2022-10-31T07:22:07.011Z,12.85
2022-10-31T07:23:07.146Z,12.85
2022-10-31T07:24:06.976Z,12.88
2022-10-31T07:25:06.954Z,12.89
2022-10-31T07:26:06.921Z,12.89
2022-10-31T07:27:06.950Z,12.92
2022-10-31T07:28:06.965Z,12.91
2022-10-31T07:29:06.911Z,12.94
2022-10-31T07:30:06.894Z,12.95
2022-10-31T07:31:06.901Z,12.95
2022-10-31T07:32:06.861Z,12.96
2022-10-31T07:33:06.892Z,12.98
2022-10-31T07:34:06.859Z,12.98
2022-10-31T07:35:06.801Z,13.01
2022-10-31T07:36:06.812Z,13.03
2022-10-31T07:37:06.813Z,13.04
2022-10-31T07:38:06.808Z,13.07
2022-10-31T07:39:06.827Z,13.07
2022-10-31T07:40:06.792Z,13.09
2022-10-31T07:41:06.754Z,13.12
2022-10-31T07:42:06.720Z,13.13
2022-10-31T07:43:10.204Z,13.14
2022-10-31T07:44:07.783Z,13.16
2022-10-31T07:45:06.722Z,13.19
2022-10-31T07:46:06.723Z,13.22
2022-10-31T07:47:06.659Z,13.24
2022-10-31T07:48:06.657Z,13.24
2022-10-31T07:49:06.661Z,13.27
2022-10-31T07:50:06.652Z,13.27
2022-10-31T07:51:06.639Z,13.25
2022-10-31T07:52:06.621Z,13.28
2022-10-31T07:53:06.623Z,13.29
2022-10-31T07:54:06.598Z,13.29
2022-10-31T07:55:06.612Z,13.32
2022-10-31T07:56:06.538Z,13.35
2022-10-31T07:57:06.545Z,13.36
2022-10-31T07:58:06.573Z,13.36
2022-10-31T07:59:06.541Z,13.39
2022-10-31T08:00:06.541Z,13.41
2022-10-31T08:01:06.697Z,13.43
2022-10-31T08:02:06.504Z,13.43
2022-10-31T08:03:06.461Z,13.46
2022-10-31T08:04:06.477Z,13.47
2022-10-31T08:05:06.452Z,13.48
2022-10-31T08:06:06.435Z,13.48
2022-10-31T08:07:06.397Z,13.50
2022-10-31T08:08:06.410Z,13.50
2022-10-31T08:09:06.380Z,13.53
2022-10-31T08:10:06.381Z,13.54
2022-10-31T08:11:06.379Z,13.54
2022-10-31T08:12:06.358Z,13.55
2022-10-31T08:13:06.320Z,13.57
2022-10-31T08:14:06.339Z,13.57
2022-10-31T08:15:06.331Z,13.57
2022-10-31T08:16:06.287Z,13.59
2022-10-31T08:17:06.290Z,13.61
2022-10-31T08:18:06.339Z,13.62
2022-10-31T08:19:06.283Z,13.62
2022-10-31T08:20:06.276Z,13.63
2022-10-31T08:21:06.250Z,13.62
2022-10-31T08:22:06.226Z,13.62
2022-10-31T08:23:06.224Z,13.63
2022-10-31T08:24:06.195Z,13.65
2022-10-31T08:25:06.228Z,13.65
2022-10-31T08:26:06.201Z,13.66
2022-10-31T08:27:06.192Z,13.66
2022-10-31T08:28:06.167Z,13.66
2022-10-31T08:29:06.150Z,13.69
2022-10-31T08:30:06.180Z,13.68
2022-10-31T08:31:06.127Z,13.69
2022-10-31T08:32:06.138Z,13.71
2022-10-31T08:33:06.089Z,13.71
2022-10-31T08:34:06.128Z,13.71
2022-10-31T08:35:06.067Z,13.71
2022-10-31T08:36:06.074Z,13.72
2022-10-31T08:37:06.024Z,13.73
2022-10-31T08:38:06.064Z,13.73
2022-10-31T08:39:06.016Z,13.76
2022-10-31T08:40:06.008Z,13.76
2022-10-31T08:41:06.011Z,13.80
2022-10-31T08:42:06.010Z,13.81
2022-10-31T08:43:05.962Z,13.86
2022-10-31T08:44:05.974Z,13.88
2022-10-31T08:45:05.964Z,13.90
2022-10-31T08:46:05.936Z,13.91
2022-10-31T08:47:05.899Z,13.96
2022-10-31T08:48:05.982Z,13.98
2022-10-31T08:49:05.867Z,13.99
2022-10-31T08:50:05.896Z,14.01
2022-10-31T08:51:05.893Z,14.04
2022-10-31T08:52:07.663Z,14.06
2022-10-31T08:53:06.407Z,14.08
2022-10-31T08:54:05.800Z,14.09
2022-10-31T08:55:05.822Z,14.12
2022-10-31T08:56:07.452Z,14.12
2022-10-31T08:57:05.806Z,14.12
2022-10-31T08:58:05.751Z,14.16
2022-10-31T08:59:05.764Z,14.19
2022-10-31T09:00:05.778Z,14.20
2022-10-31T09:01:06.854Z,14.23
2022-10-31T09:02:05.792Z,14.26
2022-10-31T09:03:05.752Z,14.27
2022-10-31T09:04:05.681Z,14.29
2022-10-31T09:05:05.681Z,14.31
2022-10-31T09:06:05.734Z,14.34
2022-10-31T09:07:21.653Z,14.35
2022-10-31T09:08:07.888Z,14.38
2022-10-31T09:09:05.600Z,14.39
2022-10-31T09:10:05.659Z,14.42
2022-10-31T09:11:05.659Z,14.44
2022-10-31T09:12:05.588Z,14.45
2022-10-31T09:13:05.648Z,14.48
2022-10-31T09:14:05.647Z,14.48
2022-10-31T09:15:05.582Z,14.49
2022-10-31T09:16:05.542Z,14.52
2022-10-31T09:17:05.543Z,14.54
2022-10-31T09:18:05.537Z,14.56
2022-10-31T09:19:11.045Z,14.54
2022-10-31T09:20:06.560Z,14.57
2022-10-31T09:21:05.464Z,14.60
2022-10-31T09:22:05.492Z,14.59
2022-10-31T09:23:05.459Z,14.61
2022-10-31T09:24:05.434Z,14.66
2022-10-31T09:25:06.469Z,14.67
2022-10-31T09:26:05.409Z,14.69
2022-10-31T09:27:05.388Z,14.74
2022-10-31T09:28:05.441Z,14.75
2022-10-31T09:29:05.385Z,14.79
2022-10-31T09:30:05.357Z,14.80
2022-10-31T09:31:05.326Z,14.83
2022-10-31T09:32:05.337Z,14.85
2022-10-31T09:33:05.345Z,14.87
2022-10-31T09:34:05.352Z,14.87
2022-10-31T09:35:05.352Z,14.93
2022-10-31T09:36:05.298Z,14.94
2022-10-31T09:37:05.263Z,14.97
2022-10-31T09:38:05.302Z,14.95
2022-10-31T09:39:05.270Z,14.97
2022-10-31T09:40:05.282Z,14.98
2022-10-31T09:41:05.242Z,14.98
2022-10-31T09:42:05.189Z,15.00
2022-10-31T09:43:05.179Z,15.03
2022-10-31T09:44:05.217Z,15.04
2022-10-31T09:45:05.172Z,15.04
2022-10-31T09:46:05.169Z,15.05
2022-10-31T09:47:05.131Z,15.07
2022-10-31T09:48:05.140Z,15.09
2022-10-31T09:49:05.154Z,15.09
2022-10-31T09:50:05.168Z,15.12
2022-10-31T09:51:05.061Z,15.13
2022-10-31T09:52:05.120Z,15.16
2022-10-31T09:53:05.145Z,15.18
2022-10-31T09:54:14.148Z,15.16
2022-10-31T09:55:14.069Z,15.16
2022-10-31T09:56:05.058Z,15.16
2022-10-31T09:57:05.000Z,15.20
2022-10-31T09:58:05.056Z,15.20
2022-10-31T09:59:05.003Z,15.22
2022-10-31T10:00:04.994Z,15.22
2022-10-31T10:01:05.010Z,15.25
2022-10-31T10:02:04.965Z,15.28
2022-10-31T10:03:04.921Z,15.28
2022-10-31T10:04:04.940Z,15.33
2022-10-31T10:05:04.957Z,15.35
2022-10-31T10:06:04.888Z,15.38
2022-10-31T10:07:04.903Z,15.41
2022-10-31T10:08:04.890Z,15.46
2022-10-31T10:09:04.830Z,15.51
2022-10-31T10:10:04.876Z,15.51
2022-10-31T10:11:04.855Z,15.56
2022-10-31T10:12:04.833Z,15.59
2022-10-31T10:13:08.250Z,15.62
2022-10-31T10:14:04.932Z,15.66
2022-10-31T10:15:19.883Z,15.67
2022-10-31T10:16:05.775Z,15.70
2022-10-31T10:17:04.737Z,15.73
2022-10-31T10:18:04.753Z,15.76
2022-10-31T10:19:04.724Z,15.73
2022-10-31T10:20:04.707Z,15.74
2022-10-31T10:21:04.742Z,15.77
2022-10-31T10:22:04.699Z,15.80
2022-10-31T10:23:04.712Z,15.84
2022-10-31T10:24:04.672Z,15.86
2022-10-31T10:25:04.690Z,15.89
2022-10-31T10:26:10.165Z,15.93
2022-10-31T10:27:05.611Z,15.96
2022-10-31T10:28:04.792Z,15.99
2022-10-31T10:29:04.584Z,16.04
2022-10-31T10:30:04.608Z,16.08
2022-10-31T10:31:04.634Z,16.11
2022-10-31T10:32:04.563Z,16.14
2022-10-31T10:33:04.561Z,16.17
2022-10-31T10:34:04.555Z,16.18
2022-10-31T10:35:04.545Z,16.23
2022-10-31T10:36:04.606Z,16.25
2022-10-31T10:37:04.523Z,16.26
2022-10-31T10:38:04.614Z,16.27
2022-10-31T10:39:04.515Z,16.27
2022-10-31T10:40:04.479Z,16.29
2022-10-31T10:41:15.191Z,16.29
2022-10-31T10:42:04.870Z,16.33
2022-10-31T10:43:04.651Z,16.34
2022-10-31T10:44:05.571Z,16.36
2022-10-31T10:45:04.439Z,16.34
2022-10-31T10:46:06.578Z,16.37
2022-10-31T10:47:04.364Z,16.41
2022-10-31T10:48:04.357Z,16.44
2022-10-31T10:49:04.356Z,16.47
2022-10-31T10:50:04.328Z,16.48
2022-10-31T10:51:04.339Z,16.52
2022-10-31T10:52:20.299Z,16.55
2022-10-31T10:53:05.284Z,16.60
2022-10-31T10:54:10.299Z,16.63
2022-10-31T10:55:05.314Z,16.67
2022-10-31T10:56:04.275Z,16.69
2022-10-31T10:57:04.272Z,16.73
2022-10-31T10:58:05.540Z,16.78
2022-10-31T10:59:04.247Z,16.80
2022-10-31T11:00:04.200Z,16.85
2022-10-31T11:01:04.383Z,16.90
2022-10-31T11:02:04.190Z,16.95
2022-10-31T11:03:04.486Z,16.96
2022-10-31T11:04:04.181Z,17.00
2022-10-31T11:05:04.150Z,17.05
2022-10-31T11:06:04.148Z,17.09
2022-10-31T11:07:04.083Z,17.10
2022-10-31T11:08:04.145Z,17.10
2022-10-31T11:09:04.052Z,17.14
2022-10-31T11:10:04.052Z,17.14
2022-10-31T11:11:04.053Z,17.15
2022-10-31T11:12:04.026Z,17.17
2022-10-31T11:13:04.389Z,17.18
2022-10-31T11:14:04.038Z,17.18
2022-10-31T11:15:03.988Z,17.20
2022-10-31T11:16:03.991Z,17.24
2022-10-31T11:17:03.965Z,17.25
2022-10-31T11:18:03.950Z,17.21
2022-10-31T11:19:03.984Z,17.22
2022-10-31T11:20:03.955Z,17.22
2022-10-31T11:21:03.906Z,17.24
2022-10-31T11:22:03.950Z,17.28
2022-10-31T11:23:03.904Z,17.30
2022-10-31T11:24:03.875Z,17.32
2022-10-31T11:25:03.875Z,17.33
2022-10-31T11:26:03.855Z,17.32
2022-10-31T11:27:03.820Z,17.35
2022-10-31T11:28:03.825Z,17.39
2022-10-31T11:29:03.837Z,17.39
2022-10-31T11:30:03.804Z,17.43
2022-10-31T11:31:03.788Z,17.45
2022-10-31T11:32:03.768Z,17.49
2022-10-31T11:33:04.016Z,17.49
2022-10-31T11:34:03.756Z,17.53
2022-10-31T11:35:03.758Z,17.53
2022-10-31T11:36:03.701Z,17.55
2022-10-31T11:37:03.722Z,17.55
2022-10-31T11:38:04.036Z,17.55
2022-10-31T11:39:03.708Z,17.57
2022-10-31T11:40:03.675Z,17.58
2022-10-31T11:41:03.664Z,17.58
2022-10-31T11:42:08.613Z,17.60
2022-10-31T11:43:04.643Z,17.62
2022-10-31T11:44:03.630Z,17.60
2022-10-31T11:45:03.591Z,17.62
2022-10-31T11:46:03.573Z,17.62
2022-10-31T11:47:03.572Z,17.63
2022-10-31T11:48:04.620Z,17.63
2022-10-31T11:49:03.763Z,17.62
2022-10-31T11:50:03.586Z,17.60
2022-10-31T11:51:03.521Z,17.60
2022-10-31T11:52:03.558Z,17.62
2022-10-31T11:53:04.557Z,17.63
2022-10-31T11:54:03.618Z,17.65
2022-10-31T11:55:03.523Z,17.63
2022-10-31T11:56:03.486Z,17.63
2022-10-31T11:57:03.451Z,17.62
2022-10-31T11:58:03.863Z,17.63
2022-10-31T11:59:03.429Z,17.60
2022-10-31T12:00:03.491Z,17.60
2022-10-31T12:01:03.405Z,17.62
2022-10-31T12:02:03.467Z,17.58
2022-10-31T12:03:03.855Z,17.58
2022-10-31T12:04:03.365Z,17.58
2022-10-31T12:05:03.367Z,17.58
2022-10-31T12:06:03.409Z,17.58
2022-10-31T12:07:03.314Z,17.60
2022-10-31T12:08:04.633Z,17.60
2022-10-31T12:09:03.322Z,17.60
2022-10-31T12:10:03.361Z,17.60
2022-10-31T12:11:03.292Z,17.60
2022-10-31T12:12:03.305Z,17.62
2022-10-31T12:13:03.692Z,17.58
2022-10-31T12:14:04.186Z,17.57
2022-10-31T12:15:03.308Z,17.58
2022-10-31T12:16:03.280Z,17.57
2022-10-31T12:17:03.220Z,17.55
2022-10-31T12:18:03.249Z,17.55
2022-10-31T12:19:03.645Z,17.54
2022-10-31T12:20:03.426Z,17.54
2022-10-31T12:21:03.326Z,17.53
2022-10-31T12:22:03.200Z,17.51
2022-10-31T12:23:03.649Z,17.57
2022-10-31T12:24:03.166Z,17.57
2022-10-31T12:25:03.109Z,17.58
2022-10-31T12:26:03.123Z,17.63
2022-10-31T12:27:03.240Z,17.63
2022-10-31T12:28:03.089Z,17.68
2022-10-31T12:29:03.146Z,17.70
2022-10-31T12:30:03.084Z,17.71
2022-10-31T12:31:03.035Z,17.68
2022-10-31T12:32:03.151Z,17.71
2022-10-31T12:33:03.312Z,17.73
2022-10-31T12:34:03.062Z,17.74
2022-10-31T12:35:02.995Z,17.76
2022-10-31T12:36:03.955Z,17.73
2022-10-31T12:37:02.945Z,17.73
2022-10-31T12:38:03.273Z,17.73
2022-10-31T12:39:02.925Z,17.74
2022-10-31T12:40:03.064Z,17.76
2022-10-31T12:41:02.864Z,17.79
2022-10-31T12:42:02.854Z,17.79
2022-10-31T12:43:03.238Z,17.77
2022-10-31T12:44:02.858Z,17.76
2022-10-31T12:45:02.828Z,17.76
2022-10-31T12:46:02.858Z,17.76
2022-10-31T12:47:03.109Z,17.76
2022-10-31T12:49:18.788Z,17.77
2022-10-31T12:52:15.392Z,17.79
2022-10-31T12:53:23.066Z,17.77
2022-10-31T12:54:15.525Z,17.76
2022-10-31T12:55:15.122Z,17.76
2022-10-31T12:56:15.144Z,17.74
2022-10-31T12:57:15.130Z,17.74